sensor_id;sensor_type;location;lat;lon;timestamp;P1;durP1;ratioP1;P2;durP2;ratioP2
37873;SDS011;23709;48.078;11.684;2024-03-07T00:03:06;25.98;;;14.23;;
37873;SDS011;23709;48.078;11.684;2024-03-07T00:05:38;37.80;;;17.60;;
37873;SDS011;23709;48.078;11.684;2024-03-07T00:08:11;37.85;;;17.35;;
37873;SDS011;23709;48.078;11.684;2024-03-07T00:10:44;26.63;;;14.32;;
37873;SDS011;23709;48.078;11.684;2024-03-07T00:13:17;26.25;;;14.52;;
37873;SDS011;23709;48.078;11.684;2024-03-07T00:15:49;27.73;;;14.75;;
37873;SDS011;23709;48.078;11.684;2024-03-07T00:18:22;25.95;;;14.05;;
37873;SDS011;23709;48.078;11.684;2024-03-07T00:20:54;25.40;;;12.95;;
37873;SDS011;23709;48.078;11.684;2024-03-07T00:23:27;26.63;;;13.93;;
37873;SDS011;23709;48.078;11.684;2024-03-07T00:26:00;24.88;;;12.70;;
37873;SDS011;23709;48.078;11.684;2024-03-07T00:28:32;28.77;;;15.15;;
37873;SDS011;23709;48.078;11.684;2024-03-07T00:31:10;26.70;;;13.75;;
37873;SDS011;23709;48.078;11.684;2024-03-07T00:33:44;28.33;;;14.35;;
37873;SDS011;23709;48.078;11.684;2024-03-07T00:36:36;29.95;;;15.55;;
37873;SDS011;23709;48.078;11.684;2024-03-07T00:39:10;27.02;;;14.63;;
37873;SDS011;23709;48.078;11.684;2024-03-07T00:41:45;37.00;;;17.55;;
37873;SDS011;23709;48.078;11.684;2024-03-07T00:44:18;44.95;;;19.30;;
37873;SDS011;23709;48.078;11.684;2024-03-07T00:46:50;34.25;;;17.02;;
37873;SDS011;23709;48.078;11.684;2024-03-07T00:49:22;37.00;;;16.45;;
37873;SDS011;23709;48.078;11.684;2024-03-07T00:51:55;40.78;;;18.65;;
37873;SDS011;23709;48.078;11.684;2024-03-07T00:54:27;34.63;;;16.13;;
37873;SDS011;23709;48.078;11.684;2024-03-07T00:57:00;36.95;;;16.67;;
37873;SDS011;23709;48.078;11.684;2024-03-07T00:59:32;33.25;;;14.82;;
37873;SDS011;23709;48.078;11.684;2024-03-07T01:02:04;36.67;;;17.52;;
37873;SDS011;23709;48.078;11.684;2024-03-07T01:04:37;35.38;;;16.55;;
37873;SDS011;23709;48.078;11.684;2024-03-07T01:07:09;53.13;;;20.05;;
37873;SDS011;23709;48.078;11.684;2024-03-07T01:09:42;49.35;;;20.80;;
37873;SDS011;23709;48.078;11.684;2024-03-07T01:12:15;34.50;;;16.58;;
37873;SDS011;23709;48.078;11.684;2024-03-07T01:14:50;33.53;;;14.60;;
37873;SDS011;23709;48.078;11.684;2024-03-07T01:17:23;44.42;;;18.90;;
37873;SDS011;23709;48.078;11.684;2024-03-07T01:19:59;51.40;;;20.70;;
37873;SDS011;23709;48.078;11.684;2024-03-07T01:22:31;42.55;;;18.33;;
37873;SDS011;23709;48.078;11.684;2024-03-07T01:25:04;62.42;;;22.15;;
37873;SDS011;23709;48.078;11.684;2024-03-07T01:27:38;41.72;;;18.33;;
37873;SDS011;23709;48.078;11.684;2024-03-07T01:30:13;89.90;;;27.63;;
37873;SDS011;23709;48.078;11.684;2024-03-07T01:32:47;79.32;;;25.65;;
37873;SDS011;23709;48.078;11.684;2024-03-07T01:35:23;81.53;;;26.67;;
37873;SDS011;23709;48.078;11.684;2024-03-07T01:37:56;94.35;;;28.15;;
37873;SDS011;23709;48.078;11.684;2024-03-07T01:40:29;92.60;;;27.90;;
37873;SDS011;23709;48.078;11.684;2024-03-07T01:43:04;49.72;;;20.58;;
37873;SDS011;23709;48.078;11.684;2024-03-07T01:45:37;87.32;;;27.17;;
37873;SDS011;23709;48.078;11.684;2024-03-07T01:48:10;74.13;;;25.42;;
37873;SDS011;23709;48.078;11.684;2024-03-07T01:50:48;68.25;;;24.48;;
37873;SDS011;23709;48.078;11.684;2024-03-07T01:53:21;102.60;;;30.15;;
37873;SDS011;23709;48.078;11.684;2024-03-07T01:55:54;70.43;;;23.27;;
37873;SDS011;23709;48.078;11.684;2024-03-07T01:58:28;69.28;;;25.42;;
37873;SDS011;23709;48.078;11.684;2024-03-07T02:01:02;94.68;;;29.23;;
37873;SDS011;23709;48.078;11.684;2024-03-07T02:03:35;118.70;;;32.10;;
37873;SDS011;23709;48.078;11.684;2024-03-07T02:06:08;89.45;;;30.58;;
37873;SDS011;23709;48.078;11.684;2024-03-07T02:08:40;130.30;;;34.27;;
37873;SDS011;23709;48.078;11.684;2024-03-07T02:11:13;121.40;;;34.15;;
37873;SDS011;23709;48.078;11.684;2024-03-07T02:13:45;75.00;;;26.23;;
37873;SDS011;23709;48.078;11.684;2024-03-07T02:16:18;70.07;;;26.27;;
37873;SDS011;23709;48.078;11.684;2024-03-07T02:18:51;92.93;;;28.83;;
37873;SDS011;23709;48.078;11.684;2024-03-07T02:21:24;134.88;;;35.97;;
37873;SDS011;23709;48.078;11.684;2024-03-07T02:23:56;134.35;;;33.28;;
37873;SDS011;23709;48.078;11.684;2024-03-07T02:26:29;96.40;;;29.30;;
37873;SDS011;23709;48.078;11.684;2024-03-07T02:29:02;143.82;;;35.63;;
37873;SDS011;23709;48.078;11.684;2024-03-07T02:31:35;85.60;;;28.20;;
37873;SDS011;23709;48.078;11.684;2024-03-07T02:36:40;109.22;;;29.25;;
37873;SDS011;23709;48.078;11.684;2024-03-07T02:39:15;96.47;;;29.73;;
37873;SDS011;23709;48.078;11.684;2024-03-07T02:41:49;80.55;;;27.45;;
37873;SDS011;23709;48.078;11.684;2024-03-07T02:44:21;81.20;;;23.77;;
37873;SDS011;23709;48.078;11.684;2024-03-07T02:46:54;94.53;;;26.50;;
37873;SDS011;23709;48.078;11.684;2024-03-07T02:49:26;99.93;;;28.88;;
37873;SDS011;23709;48.078;11.684;2024-03-07T02:51:58;150.70;;;36.13;;
37873;SDS011;23709;48.078;11.684;2024-03-07T02:54:31;92.13;;;26.55;;
37873;SDS011;23709;48.078;11.684;2024-03-07T02:57:05;90.88;;;27.50;;
37873;SDS011;23709;48.078;11.684;2024-03-07T02:59:37;84.00;;;26.85;;
37873;SDS011;23709;48.078;11.684;2024-03-07T03:02:10;68.88;;;23.73;;
37873;SDS011;23709;48.078;11.684;2024-03-07T03:04:43;72.28;;;24.33;;
37873;SDS011;23709;48.078;11.684;2024-03-07T03:07:15;91.45;;;27.50;;
37873;SDS011;23709;48.078;11.684;2024-03-07T03:09:48;102.38;;;29.67;;
37873;SDS011;23709;48.078;11.684;2024-03-07T03:12:20;55.83;;;21.55;;
37873;SDS011;23709;48.078;11.684;2024-03-07T03:17:26;72.97;;;24.35;;
37873;SDS011;23709;48.078;11.684;2024-03-07T03:19:59;59.30;;;19.92;;
37873;SDS011;23709;48.078;11.684;2024-03-07T03:22:31;64.07;;;23.02;;
37873;SDS011;23709;48.078;11.684;2024-03-07T03:25:06;69.32;;;23.15;;
37873;SDS011;23709;48.078;11.684;2024-03-07T03:27:39;58.65;;;22.88;;
37873;SDS011;23709;48.078;11.684;2024-03-07T03:30:12;66.65;;;23.42;;
37873;SDS011;23709;48.078;11.684;2024-03-07T03:32:46;80.03;;;26.48;;
37873;SDS011;23709;48.078;11.684;2024-03-07T03:35:19;70.53;;;24.83;;
37873;SDS011;23709;48.078;11.684;2024-03-07T03:37:51;62.42;;;22.42;;
37873;SDS011;23709;48.078;11.684;2024-03-07T03:40:23;91.20;;;26.73;;
37873;SDS011;23709;48.078;11.684;2024-03-07T03:42:56;77.03;;;25.73;;
37873;SDS011;23709;48.078;11.684;2024-03-07T03:45:28;65.47;;;23.77;;
37873;SDS011;23709;48.078;11.684;2024-03-07T03:48:00;60.88;;;24.23;;
37873;SDS011;23709;48.078;11.684;2024-03-07T03:50:34;68.03;;;22.52;;
37873;SDS011;23709;48.078;11.684;2024-03-07T03:53:06;56.25;;;21.88;;
37873;SDS011;23709;48.078;11.684;2024-03-07T03:55:39;89.53;;;26.98;;
37873;SDS011;23709;48.078;11.684;2024-03-07T03:58:11;91.47;;;26.27;;
37873;SDS011;23709;48.078;11.684;2024-03-07T04:00:44;71.68;;;24.30;;
37873;SDS011;23709;48.078;11.684;2024-03-07T04:03:16;75.15;;;25.10;;
37873;SDS011;23709;48.078;11.684;2024-03-07T04:05:48;79.93;;;24.92;;
37873;SDS011;23709;48.078;11.684;2024-03-07T04:08:21;88.68;;;32.58;;
37873;SDS011;23709;48.078;11.684;2024-03-07T04:10:53;119.10;;;37.50;;
37873;SDS011;23709;48.078;11.684;2024-03-07T04:13:25;80.88;;;29.77;;
37873;SDS011;23709;48.078;11.684;2024-03-07T04:15:58;98.38;;;31.92;;
37873;SDS011;23709;48.078;11.684;2024-03-07T04:18:31;76.60;;;30.55;;
37873;SDS011;23709;48.078;11.684;2024-03-07T04:21:04;93.95;;;31.08;;
37873;SDS011;23709;48.078;11.684;2024-03-07T04:23:39;79.60;;;30.75;;
37873;SDS011;23709;48.078;11.684;2024-03-07T04:26:12;89.40;;;35.67;;
37873;SDS011;23709;48.078;11.684;2024-03-07T04:28:45;99.60;;;40.40;;
37873;SDS011;23709;48.078;11.684;2024-03-07T04:31:18;134.27;;;49.97;;
37873;SDS011;23709;48.078;11.684;2024-03-07T04:33:50;118.70;;;48.65;;
37873;SDS011;23709;48.078;11.684;2024-03-07T04:36:22;125.65;;;50.88;;
37873;SDS011;23709;48.078;11.684;2024-03-07T04:38:55;128.73;;;51.78;;
37873;SDS011;23709;48.078;11.684;2024-03-07T04:41:27;118.10;;;49.55;;
37873;SDS011;23709;48.078;11.684;2024-03-07T04:44:08;134.38;;;54.00;;
37873;SDS011;23709;48.078;11.684;2024-03-07T04:46:40;132.73;;;53.95;;
37873;SDS011;23709;48.078;11.684;2024-03-07T04:49:14;144.43;;;53.65;;
37873;SDS011;23709;48.078;11.684;2024-03-07T04:51:47;122.67;;;49.60;;
37873;SDS011;23709;48.078;11.684;2024-03-07T04:54:20;134.45;;;55.55;;
37873;SDS011;23709;48.078;11.684;2024-03-07T04:59:26;140.95;;;54.70;;
37873;SDS011;23709;48.078;11.684;2024-03-07T05:01:58;158.27;;;61.13;;
37873;SDS011;23709;48.078;11.684;2024-03-07T05:04:31;138.55;;;55.05;;
37873;SDS011;23709;48.078;11.684;2024-03-07T05:07:05;135.63;;;57.65;;
37873;SDS011;23709;48.078;11.684;2024-03-07T05:09:37;131.07;;;54.17;;
37873;SDS011;23709;48.078;11.684;2024-03-07T05:12:09;134.82;;;57.15;;
37873;SDS011;23709;48.078;11.684;2024-03-07T05:14:43;137.10;;;57.83;;
37873;SDS011;23709;48.078;11.684;2024-03-07T05:17:17;175.10;;;63.38;;
37873;SDS011;23709;48.078;11.684;2024-03-07T05:19:54;147.02;;;57.08;;
37873;SDS011;23709;48.078;11.684;2024-03-07T05:22:33;153.00;;;57.80;;
37873;SDS011;23709;48.078;11.684;2024-03-07T05:25:08;145.60;;;58.83;;
37873;SDS011;23709;48.078;11.684;2024-03-07T05:27:42;132.75;;;55.95;;
37873;SDS011;23709;48.078;11.684;2024-03-07T05:30:15;141.17;;;58.03;;
37873;SDS011;23709;48.078;11.684;2024-03-07T05:32:48;147.43;;;60.60;;
37873;SDS011;23709;48.078;11.684;2024-03-07T05:35:21;131.45;;;56.05;;
37873;SDS011;23709;48.078;11.684;2024-03-07T05:37:53;135.68;;;57.35;;
37873;SDS011;23709;48.078;11.684;2024-03-07T05:40:28;129.48;;;54.63;;
37873;SDS011;23709;48.078;11.684;2024-03-07T05:43:00;142.50;;;58.03;;
37873;SDS011;23709;48.078;11.684;2024-03-07T05:45:32;147.07;;;60.38;;
37873;SDS011;23709;48.078;11.684;2024-03-07T05:48:13;139.25;;;58.50;;
37873;SDS011;23709;48.078;11.684;2024-03-07T05:50:49;141.32;;;60.05;;
37873;SDS011;23709;48.078;11.684;2024-03-07T05:53:22;135.27;;;55.78;;
37873;SDS011;23709;48.078;11.684;2024-03-07T05:55:54;127.95;;;56.47;;
37873;SDS011;23709;48.078;11.684;2024-03-07T05:58:26;130.63;;;58.03;;
37873;SDS011;23709;48.078;11.684;2024-03-07T06:00:59;141.30;;;60.47;;
37873;SDS011;23709;48.078;11.684;2024-03-07T06:03:31;137.32;;;60.03;;
37873;SDS011;23709;48.078;11.684;2024-03-07T06:06:04;105.38;;;45.42;;
37873;SDS011;23709;48.078;11.684;2024-03-07T06:08:39;147.95;;;59.75;;
37873;SDS011;23709;48.078;11.684;2024-03-07T06:11:14;140.63;;;60.88;;
37873;SDS011;23709;48.078;11.684;2024-03-07T06:13:51;138.27;;;58.58;;
37873;SDS011;23709;48.078;11.684;2024-03-07T06:16:24;134.55;;;58.08;;
37873;SDS011;23709;48.078;11.684;2024-03-07T06:18:57;137.70;;;58.50;;
37873;SDS011;23709;48.078;11.684;2024-03-07T06:21:29;147.57;;;62.10;;
37873;SDS011;23709;48.078;11.684;2024-03-07T06:24:05;144.38;;;58.35;;
37873;SDS011;23709;48.078;11.684;2024-03-07T06:26:40;135.20;;;58.50;;
37873;SDS011;23709;48.078;11.684;2024-03-07T06:29:14;161.15;;;63.65;;
37873;SDS011;23709;48.078;11.684;2024-03-07T06:31:48;142.23;;;59.15;;
37873;SDS011;23709;48.078;11.684;2024-03-07T06:34:22;124.75;;;54.28;;
37873;SDS011;23709;48.078;11.684;2024-03-07T06:36:54;115.90;;;50.58;;
37873;SDS011;23709;48.078;11.684;2024-03-07T06:39:27;138.10;;;60.35;;
37873;SDS011;23709;48.078;11.684;2024-03-07T06:42:00;134.00;;;56.45;;
37873;SDS011;23709;48.078;11.684;2024-03-07T06:44:32;134.82;;;58.53;;
37873;SDS011;23709;48.078;11.684;2024-03-07T06:47:05;145.03;;;61.13;;
37873;SDS011;23709;48.078;11.684;2024-03-07T06:49:37;141.60;;;58.40;;
37873;SDS011;23709;48.078;11.684;2024-03-07T06:52:11;139.23;;;59.35;;
37873;SDS011;23709;48.078;11.684;2024-03-07T06:54:44;131.60;;;57.67;;
37873;SDS011;23709;48.078;11.684;2024-03-07T06:57:16;138.05;;;59.65;;
37873;SDS011;23709;48.078;11.684;2024-03-07T06:59:50;134.63;;;57.28;;
37873;SDS011;23709;48.078;11.684;2024-03-07T07:02:23;130.63;;;59.45;;
37873;SDS011;23709;48.078;11.684;2024-03-07T07:04:55;140.50;;;58.90;;
37873;SDS011;23709;48.078;11.684;2024-03-07T07:07:27;134.68;;;58.83;;
37873;SDS011;23709;48.078;11.684;2024-03-07T07:10:00;130.38;;;58.60;;
37873;SDS011;23709;48.078;11.684;2024-03-07T07:12:32;140.32;;;58.40;;
37873;SDS011;23709;48.078;11.684;2024-03-07T07:15:05;135.55;;;58.22;;
37873;SDS011;23709;48.078;11.684;2024-03-07T07:17:38;126.75;;;55.38;;
37873;SDS011;23709;48.078;11.684;2024-03-07T07:20:11;130.00;;;55.17;;
37873;SDS011;23709;48.078;11.684;2024-03-07T07:22:46;129.65;;;57.72;;
37873;SDS011;23709;48.078;11.684;2024-03-07T07:25:19;126.05;;;56.40;;
37873;SDS011;23709;48.078;11.684;2024-03-07T07:27:53;129.00;;;57.60;;
37873;SDS011;23709;48.078;11.684;2024-03-07T07:30:25;139.75;;;59.33;;
37873;SDS011;23709;48.078;11.684;2024-03-07T07:32:59;127.47;;;58.40;;
37873;SDS011;23709;48.078;11.684;2024-03-07T07:35:32;121.38;;;55.25;;
37873;SDS011;23709;48.078;11.684;2024-03-07T07:38:06;129.27;;;58.03;;
37873;SDS011;23709;48.078;11.684;2024-03-07T07:40:42;135.52;;;57.72;;
37873;SDS011;23709;48.078;11.684;2024-03-07T07:43:16;125.90;;;56.30;;
37873;SDS011;23709;48.078;11.684;2024-03-07T07:46:04;122.88;;;55.05;;
37873;SDS011;23709;48.078;11.684;2024-03-07T07:48:36;132.77;;;56.80;;
37873;SDS011;23709;48.078;11.684;2024-03-07T07:51:11;126.05;;;55.58;;
37873;SDS011;23709;48.078;11.684;2024-03-07T07:53:44;129.48;;;57.67;;
37873;SDS011;23709;48.078;11.684;2024-03-07T07:56:17;138.43;;;57.97;;
37873;SDS011;23709;48.078;11.684;2024-03-07T07:58:49;130.32;;;55.72;;
37873;SDS011;23709;48.078;11.684;2024-03-07T08:03:55;126.82;;;57.28;;
37873;SDS011;23709;48.078;11.684;2024-03-07T08:09:02;125.27;;;52.47;;
37873;SDS011;23709;48.078;11.684;2024-03-07T08:11:34;119.43;;;54.88;;
37873;SDS011;23709;48.078;11.684;2024-03-07T08:14:08;129.05;;;58.95;;
37873;SDS011;23709;48.078;11.684;2024-03-07T08:16:41;119.18;;;54.15;;
37873;SDS011;23709;48.078;11.684;2024-03-07T08:19:13;117.43;;;53.60;;
37873;SDS011;23709;48.078;11.684;2024-03-07T08:21:46;125.20;;;54.88;;
37873;SDS011;23709;48.078;11.684;2024-03-07T08:24:18;117.68;;;54.05;;
37873;SDS011;23709;48.078;11.684;2024-03-07T08:26:50;117.38;;;53.33;;
37873;SDS011;23709;48.078;11.684;2024-03-07T08:29:23;123.15;;;54.15;;
37873;SDS011;23709;48.078;11.684;2024-03-07T08:31:56;111.90;;;51.65;;
37873;SDS011;23709;48.078;11.684;2024-03-07T08:34:28;118.63;;;54.50;;
37873;SDS011;23709;48.078;11.684;2024-03-07T08:37:00;123.85;;;54.28;;
37873;SDS011;23709;48.078;11.684;2024-03-07T08:42:06;119.63;;;51.67;;
37873;SDS011;23709;48.078;11.684;2024-03-07T08:44:38;109.88;;;50.55;;
37873;SDS011;23709;48.078;11.684;2024-03-07T08:47:11;120.50;;;53.97;;
37873;SDS011;23709;48.078;11.684;2024-03-07T08:49:43;123.70;;;54.28;;
37873;SDS011;23709;48.078;11.684;2024-03-07T08:52:16;114.13;;;53.63;;
37873;SDS011;23709;48.078;11.684;2024-03-07T08:54:48;120.07;;;55.20;;
37873;SDS011;23709;48.078;11.684;2024-03-07T08:57:21;112.68;;;54.28;;
37873;SDS011;23709;48.078;11.684;2024-03-07T08:59:54;112.82;;;53.65;;
37873;SDS011;23709;48.078;11.684;2024-03-07T09:02:26;111.78;;;50.97;;
37873;SDS011;23709;48.078;11.684;2024-03-07T09:04:59;116.97;;;53.40;;
37873;SDS011;23709;48.078;11.684;2024-03-07T09:07:32;104.37;;;50.80;;
37873;SDS011;23709;48.078;11.684;2024-03-07T09:10:04;112.10;;;51.17;;
37873;SDS011;23709;48.078;11.684;2024-03-07T09:12:39;110.00;;;51.40;;
37873;SDS011;23709;48.078;11.684;2024-03-07T09:17:45;113.90;;;51.72;;
37873;SDS011;23709;48.078;11.684;2024-03-07T09:20:19;115.60;;;53.97;;
37873;SDS011;23709;48.078;11.684;2024-03-07T09:22:52;116.63;;;52.67;;
37873;SDS011;23709;48.078;11.684;2024-03-07T09:25:27;109.03;;;51.53;;
37873;SDS011;23709;48.078;11.684;2024-03-07T09:28:04;120.13;;;54.05;;
37873;SDS011;23709;48.078;11.684;2024-03-07T09:30:38;117.65;;;54.10;;
37873;SDS011;23709;48.078;11.684;2024-03-07T09:33:11;120.70;;;53.00;;
37873;SDS011;23709;48.078;11.684;2024-03-07T09:35:48;111.85;;;51.40;;
37873;SDS011;23709;48.078;11.684;2024-03-07T09:38:20;120.85;;;52.78;;
37873;SDS011;23709;48.078;11.684;2024-03-07T09:40:54;118.97;;;54.40;;
37873;SDS011;23709;48.078;11.684;2024-03-07T09:43:27;115.50;;;53.15;;
37873;SDS011;23709;48.078;11.684;2024-03-07T09:46:02;111.93;;;51.38;;
37873;SDS011;23709;48.078;11.684;2024-03-07T09:48:36;117.35;;;54.35;;
37873;SDS011;23709;48.078;11.684;2024-03-07T09:51:08;134.03;;;53.13;;
37873;SDS011;23709;48.078;11.684;2024-03-07T09:53:43;117.93;;;53.42;;
37873;SDS011;23709;48.078;11.684;2024-03-07T09:56:22;113.38;;;52.83;;
37873;SDS011;23709;48.078;11.684;2024-03-07T09:58:57;112.38;;;49.92;;
37873;SDS011;23709;48.078;11.684;2024-03-07T10:01:33;106.78;;;50.90;;
37873;SDS011;23709;48.078;11.684;2024-03-07T10:04:05;96.55;;;46.10;;
37873;SDS011;23709;48.078;11.684;2024-03-07T10:06:44;105.00;;;48.50;;
37873;SDS011;23709;48.078;11.684;2024-03-07T10:09:17;113.88;;;50.88;;
37873;SDS011;23709;48.078;11.684;2024-03-07T10:11:56;96.13;;;44.75;;
37873;SDS011;23709;48.078;11.684;2024-03-07T10:14:31;97.30;;;46.20;;
37873;SDS011;23709;48.078;11.684;2024-03-07T10:17:04;90.80;;;43.22;;
37873;SDS011;23709;48.078;11.684;2024-03-07T10:19:37;85.60;;;41.95;;
37873;SDS011;23709;48.078;11.684;2024-03-07T10:22:10;88.25;;;42.15;;
37873;SDS011;23709;48.078;11.684;2024-03-07T10:24:49;83.10;;;40.83;;
37873;SDS011;23709;48.078;11.684;2024-03-07T10:27:28;87.22;;;41.60;;
37873;SDS011;23709;48.078;11.684;2024-03-07T10:30:01;81.07;;;40.50;;
37873;SDS011;23709;48.078;11.684;2024-03-07T10:32:33;83.65;;;38.92;;
37873;SDS011;23709;48.078;11.684;2024-03-07T10:35:06;79.55;;;39.55;;
37873;SDS011;23709;48.078;11.684;2024-03-07T10:37:39;85.57;;;41.87;;
37873;SDS011;23709;48.078;11.684;2024-03-07T10:40:12;82.13;;;41.53;;
37873;SDS011;23709;48.078;11.684;2024-03-07T10:42:48;81.63;;;38.88;;
37873;SDS011;23709;48.078;11.684;2024-03-07T10:45:24;81.00;;;38.35;;
37873;SDS011;23709;48.078;11.684;2024-03-07T10:48:01;89.20;;;43.20;;
37873;SDS011;23709;48.078;11.684;2024-03-07T10:53:20;73.18;;;37.10;;
37873;SDS011;23709;48.078;11.684;2024-03-07T11:01:20;81.50;;;40.95;;
37873;SDS011;23709;48.078;11.684;2024-03-07T11:03:55;84.10;;;39.47;;
37873;SDS011;23709;48.078;11.684;2024-03-07T11:06:29;89.80;;;43.83;;
37873;SDS011;23709;48.078;11.684;2024-03-07T11:09:03;80.65;;;37.80;;
37873;SDS011;23709;48.078;11.684;2024-03-07T11:11:42;82.03;;;39.75;;
37873;SDS011;23709;48.078;11.684;2024-03-07T11:14:15;85.13;;;41.25;;
37873;SDS011;23709;48.078;11.684;2024-03-07T11:16:50;81.45;;;39.05;;
37873;SDS011;23709;48.078;11.684;2024-03-07T11:19:28;75.28;;;37.22;;
37873;SDS011;23709;48.078;11.684;2024-03-07T11:22:03;77.10;;;37.33;;
37873;SDS011;23709;48.078;11.684;2024-03-07T11:25:01;76.40;;;37.28;;
37873;SDS011;23709;48.078;11.684;2024-03-07T11:27:50;71.28;;;34.60;;
37873;SDS011;23709;48.078;11.684;2024-03-07T11:30:27;75.10;;;36.58;;
37873;SDS011;23709;48.078;11.684;2024-03-07T11:33:01;70.28;;;35.40;;
37873;SDS011;23709;48.078;11.684;2024-03-07T11:35:35;72.28;;;36.35;;
37873;SDS011;23709;48.078;11.684;2024-03-07T11:38:08;72.47;;;35.72;;
37873;SDS011;23709;48.078;11.684;2024-03-07T11:40:42;71.68;;;35.67;;
37873;SDS011;23709;48.078;11.684;2024-03-07T11:43:15;73.73;;;36.17;;
37873;SDS011;23709;48.078;11.684;2024-03-07T11:45:47;68.85;;;35.63;;
37873;SDS011;23709;48.078;11.684;2024-03-07T11:48:24;70.50;;;35.50;;
37873;SDS011;23709;48.078;11.684;2024-03-07T11:50:57;75.33;;;37.27;;
37873;SDS011;23709;48.078;11.684;2024-03-07T11:53:29;71.78;;;35.25;;
37873;SDS011;23709;48.078;11.684;2024-03-07T11:56:04;67.15;;;34.13;;
37873;SDS011;23709;48.078;11.684;2024-03-07T11:58:48;66.78;;;34.08;;
37873;SDS011;23709;48.078;11.684;2024-03-07T12:01:26;68.38;;;34.45;;
37873;SDS011;23709;48.078;11.684;2024-03-07T12:04:01;63.95;;;32.22;;
37873;SDS011;23709;48.078;11.684;2024-03-07T12:06:38;58.83;;;31.02;;
37873;SDS011;23709;48.078;11.684;2024-03-07T12:09:10;63.60;;;32.22;;
37873;SDS011;23709;48.078;11.684;2024-03-07T12:11:55;61.17;;;31.90;;
37873;SDS011;23709;48.078;11.684;2024-03-07T12:14:32;60.90;;;31.70;;
37873;SDS011;23709;48.078;11.684;2024-03-07T12:17:05;56.63;;;31.23;;
37873;SDS011;23709;48.078;11.684;2024-03-07T12:19:38;62.10;;;32.57;;
37873;SDS011;23709;48.078;11.684;2024-03-07T12:22:11;63.58;;;33.45;;
37873;SDS011;23709;48.078;11.684;2024-03-07T12:24:44;65.47;;;31.90;;
37873;SDS011;23709;48.078;11.684;2024-03-07T12:27:17;66.90;;;33.80;;
37873;SDS011;23709;48.078;11.684;2024-03-07T12:29:49;61.20;;;31.23;;
37873;SDS011;23709;48.078;11.684;2024-03-07T12:32:24;58.30;;;31.10;;
37873;SDS011;23709;48.078;11.684;2024-03-07T12:34:57;60.40;;;31.30;;
37873;SDS011;23709;48.078;11.684;2024-03-07T12:37:34;68.50;;;31.75;;
37873;SDS011;23709;48.078;11.684;2024-03-07T12:40:11;66.93;;;33.95;;
37873;SDS011;23709;48.078;11.684;2024-03-07T12:42:52;66.50;;;33.80;;
37873;SDS011;23709;48.078;11.684;2024-03-07T12:45:27;71.72;;;34.60;;
37873;SDS011;23709;48.078;11.684;2024-03-07T12:48:00;66.38;;;33.17;;
37873;SDS011;23709;48.078;11.684;2024-03-07T12:50:37;72.55;;;34.17;;
37873;SDS011;23709;48.078;11.684;2024-03-07T12:53:10;66.10;;;33.17;;
37873;SDS011;23709;48.078;11.684;2024-03-07T12:55:43;70.75;;;35.05;;
37873;SDS011;23709;48.078;11.684;2024-03-07T12:58:16;68.93;;;34.70;;
37873;SDS011;23709;48.078;11.684;2024-03-07T13:00:50;74.47;;;35.70;;
37873;SDS011;23709;48.078;11.684;2024-03-07T13:03:23;70.97;;;33.85;;
37873;SDS011;23709;48.078;11.684;2024-03-07T13:06:03;69.40;;;35.58;;
37873;SDS011;23709;48.078;11.684;2024-03-07T13:08:37;72.25;;;34.88;;
37873;SDS011;23709;48.078;11.684;2024-03-07T13:11:09;71.00;;;35.63;;
37873;SDS011;23709;48.078;11.684;2024-03-07T13:13:43;69.88;;;33.22;;
37873;SDS011;23709;48.078;11.684;2024-03-07T13:16:16;72.90;;;34.33;;
37873;SDS011;23709;48.078;11.684;2024-03-07T13:18:48;72.00;;;34.85;;
37873;SDS011;23709;48.078;11.684;2024-03-07T13:21:21;69.38;;;34.60;;
37873;SDS011;23709;48.078;11.684;2024-03-07T13:23:53;72.05;;;36.30;;
37873;SDS011;23709;48.078;11.684;2024-03-07T13:26:27;69.72;;;34.97;;
37873;SDS011;23709;48.078;11.684;2024-03-07T13:29:02;65.03;;;33.47;;
37873;SDS011;23709;48.078;11.684;2024-03-07T13:31:34;67.23;;;33.50;;
37873;SDS011;23709;48.078;11.684;2024-03-07T13:34:07;69.13;;;34.00;;
37873;SDS011;23709;48.078;11.684;2024-03-07T13:36:44;71.13;;;34.83;;
37873;SDS011;23709;48.078;11.684;2024-03-07T13:39:17;66.43;;;34.25;;
37873;SDS011;23709;48.078;11.684;2024-03-07T13:41:49;75.43;;;35.72;;
37873;SDS011;23709;48.078;11.684;2024-03-07T13:44:22;72.05;;;36.40;;
37873;SDS011;23709;48.078;11.684;2024-03-07T13:46:55;70.43;;;36.65;;
37873;SDS011;23709;48.078;11.684;2024-03-07T13:49:27;76.10;;;36.47;;
37873;SDS011;23709;48.078;11.684;2024-03-07T13:52:00;72.88;;;35.97;;
37873;SDS011;23709;48.078;11.684;2024-03-07T13:54:35;71.50;;;36.40;;
37873;SDS011;23709;48.078;11.684;2024-03-07T14:03:19;75.50;;;35.92;;
37873;SDS011;23709;48.078;11.684;2024-03-07T14:07:19;73.20;;;36.88;;
37873;SDS011;23709;48.078;11.684;2024-03-07T14:12:25;77.47;;;36.88;;
37873;SDS011;23709;48.078;11.684;2024-03-07T14:24:25;70.45;;;35.90;;
37873;SDS011;23709;48.078;11.684;2024-03-07T14:27:30;68.80;;;34.40;;
37873;SDS011;23709;48.078;11.684;2024-03-07T14:30:23;67.82;;;34.38;;
37873;SDS011;23709;48.078;11.684;2024-03-07T14:33:12;66.97;;;34.40;;
37873;SDS011;23709;48.078;11.684;2024-03-07T14:38:50;73.35;;;35.35;;
37873;SDS011;23709;48.078;11.684;2024-03-07T14:44:18;75.25;;;36.35;;
37873;SDS011;23709;48.078;11.684;2024-03-07T14:46:53;67.65;;;35.90;;
37873;SDS011;23709;48.078;11.684;2024-03-07T14:49:38;71.50;;;35.30;;
37873;SDS011;23709;48.078;11.684;2024-03-07T14:52:11;65.55;;;34.63;;
37873;SDS011;23709;48.078;11.684;2024-03-07T14:54:44;68.80;;;34.83;;
37873;SDS011;23709;48.078;11.684;2024-03-07T14:57:16;70.25;;;34.78;;
37873;SDS011;23709;48.078;11.684;2024-03-07T14:59:53;70.20;;;35.50;;
37873;SDS011;23709;48.078;11.684;2024-03-07T15:02:26;65.13;;;35.17;;
37873;SDS011;23709;48.078;11.684;2024-03-07T15:04:58;68.15;;;34.05;;
37873;SDS011;23709;48.078;11.684;2024-03-07T15:07:33;68.00;;;35.15;;
37873;SDS011;23709;48.078;11.684;2024-03-07T15:10:06;66.25;;;34.63;;
37873;SDS011;23709;48.078;11.684;2024-03-07T15:12:50;64.22;;;34.40;;
37873;SDS011;23709;48.078;11.684;2024-03-07T15:15:24;67.35;;;34.58;;
37873;SDS011;23709;48.078;11.684;2024-03-07T15:18:00;65.95;;;34.70;;
37873;SDS011;23709;48.078;11.684;2024-03-07T15:20:33;65.17;;;35.17;;
37873;SDS011;23709;48.078;11.684;2024-03-07T15:23:06;70.75;;;35.17;;
37873;SDS011;23709;48.078;11.684;2024-03-07T15:25:38;67.75;;;34.30;;
37873;SDS011;23709;48.078;11.684;2024-03-07T15:28:11;63.00;;;32.43;;
37873;SDS011;23709;48.078;11.684;2024-03-07T15:30:43;59.00;;;29.63;;
37873;SDS011;23709;48.078;11.684;2024-03-07T15:33:15;53.60;;;27.33;;
37873;SDS011;23709;48.078;11.684;2024-03-07T15:35:48;52.30;;;27.48;;